Terminal Aerodrome Forecast
Issued by NWS Kansas City/Pleasant Hill, MO

Home | Current Version | Previous Version | Text Only | Print | Product List | Glossary On
Versions: 1 2 3 4 5 6 7 8 9 10 11 12
743
FTUS43 KEAX 221720
TAFMCI
TAF
KMCI 221720Z 2218/2318 07012KT P6SM BKN040 OVC070
     FM222100 03007KT P6SM BKN090=

USA.gov is the U.S. government's official web portal to all federal, state and local government web resources and services.